sensor_id;sensor_type;location;lat;lon;timestamp;temperature;humidity
52979;DHT22;63430;53.186;6.598;2022-11-20T00:01:45;0.60;99.90
52979;DHT22;63430;53.186;6.598;2022-11-20T00:03:49;0.60;99.90
52979;DHT22;63430;53.186;6.598;2022-11-20T00:05:58;0.60;99.90
52979;DHT22;63430;53.186;6.598;2022-11-20T00:08:01;0.60;99.90
52979;DHT22;63430;53.186;6.598;2022-11-20T00:10:07;0.60;99.90
52979;DHT22;63430;53.186;6.598;2022-11-20T00:12:10;0.70;99.90
52979;DHT22;63430;53.186;6.598;2022-11-20T00:14:13;0.70;99.90
52979;DHT22;63430;53.186;6.598;2022-11-20T00:16:18;0.60;99.90
52979;DHT22;63430;53.186;6.598;2022-11-20T00:18:20;0.70;99.90
52979;DHT22;63430;53.186;6.598;2022-11-20T00:20:24;0.60;99.90
52979;DHT22;63430;53.186;6.598;2022-11-20T00:22:26;0.70;99.90
52979;DHT22;63430;53.186;6.598;2022-11-20T00:24:28;2.50;99.90
52979;DHT22;63430;53.186;6.598;2022-11-20T00:26:33;0.70;99.90
52979;DHT22;63430;53.186;6.598;2022-11-20T00:28:38;0.70;99.90
52979;DHT22;63430;53.186;6.598;2022-11-20T00:30:41;0.80;99.90
52979;DHT22;63430;53.186;6.598;2022-11-20T00:32:44;0.80;99.90
52979;DHT22;63430;53.186;6.598;2022-11-20T00:34:47;1.40;99.90
52979;DHT22;63430;53.186;6.598;2022-11-20T00:36:49;0.70;99.90
52979;DHT22;63430;53.186;6.598;2022-11-20T00:38:53;0.70;99.90
52979;DHT22;63430;53.186;6.598;2022-11-20T00:40:56;0.80;99.90
52979;DHT22;63430;53.186;6.598;2022-11-20T00:43:02;0.70;99.90
52979;DHT22;63430;53.186;6.598;2022-11-20T00:45:05;0.70;99.90
52979;DHT22;63430;53.186;6.598;2022-11-20T00:47:09;0.80;99.90
52979;DHT22;63430;53.186;6.598;2022-11-20T00:49:11;0.70;99.90
52979;DHT22;63430;53.186;6.598;2022-11-20T00:51:17;0.80;99.90
52979;DHT22;63430;53.186;6.598;2022-11-20T00:53:21;0.80;99.90
52979;DHT22;63430;53.186;6.598;2022-11-20T00:55:23;0.80;99.90
52979;DHT22;63430;53.186;6.598;2022-11-20T00:57:26;0.80;99.90
52979;DHT22;63430;53.186;6.598;2022-11-20T00:59:31;1.70;99.90
52979;DHT22;63430;53.186;6.598;2022-11-20T01:01:34;0.80;99.90
52979;DHT22;63430;53.186;6.598;2022-11-20T01:03:39;0.70;99.90
52979;DHT22;63430;53.186;6.598;2022-11-20T01:05:42;0.80;99.90
52979;DHT22;63430;53.186;6.598;2022-11-20T01:07:44;0.80;99.90
52979;DHT22;63430;53.186;6.598;2022-11-20T01:09:47;0.80;99.90
52979;DHT22;63430;53.186;6.598;2022-11-20T01:11:50;0.80;99.90
52979;DHT22;63430;53.186;6.598;2022-11-20T01:13:56;0.80;99.90
52979;DHT22;63430;53.186;6.598;2022-11-20T01:16:05;1.70;99.90
52979;DHT22;63430;53.186;6.598;2022-11-20T01:18:08;0.80;99.90
52979;DHT22;63430;53.186;6.598;2022-11-20T01:20:11;0.80;99.90
52979;DHT22;63430;53.186;6.598;2022-11-20T01:22:17;0.80;99.90
52979;DHT22;63430;53.186;6.598;2022-11-20T01:24:20;0.80;99.90
52979;DHT22;63430;53.186;6.598;2022-11-20T01:26:25;1.50;99.90
52979;DHT22;63430;53.186;6.598;2022-11-20T01:28:29;0.80;99.90
52979;DHT22;63430;53.186;6.598;2022-11-20T01:30:33;0.80;99.90
52979;DHT22;63430;53.186;6.598;2022-11-20T01:32:39;0.80;99.90
52979;DHT22;63430;53.186;6.598;2022-11-20T01:34:42;0.80;99.90
52979;DHT22;63430;53.186;6.598;2022-11-20T01:36:45;0.80;99.90
52979;DHT22;63430;53.186;6.598;2022-11-20T01:38:50;0.80;99.90
52979;DHT22;63430;53.186;6.598;2022-11-20T01:40:55;0.80;99.90
52979;DHT22;63430;53.186;6.598;2022-11-20T01:43:09;0.80;99.90
52979;DHT22;63430;53.186;6.598;2022-11-20T01:45:49;0.80;99.90
52979;DHT22;63430;53.186;6.598;2022-11-20T01:47:57;0.80;99.90
52979;DHT22;63430;53.186;6.598;2022-11-20T01:50:04;0.80;99.90
52979;DHT22;63430;53.186;6.598;2022-11-20T01:52:11;0.80;99.90
52979;DHT22;63430;53.186;6.598;2022-11-20T01:54:21;0.80;99.90
52979;DHT22;63430;53.186;6.598;2022-11-20T01:56:27;0.80;99.90
52979;DHT22;63430;53.186;6.598;2022-11-20T01:58:33;0.80;99.90
52979;DHT22;63430;53.186;6.598;2022-11-20T02:00:37;0.80;99.90
52979;DHT22;63430;53.186;6.598;2022-11-20T02:02:42;0.80;99.90
52979;DHT22;63430;53.186;6.598;2022-11-20T02:04:49;0.80;99.90
52979;DHT22;63430;53.186;6.598;2022-11-20T02:06:57;0.60;99.90
52979;DHT22;63430;53.186;6.598;2022-11-20T02:09:01;0.80;99.90
52979;DHT22;63430;53.186;6.598;2022-11-20T02:11:04;0.90;99.90
52979;DHT22;63430;53.186;6.598;2022-11-20T02:13:07;2.20;99.90
52979;DHT22;63430;53.186;6.598;2022-11-20T02:15:28;2.20;99.90
52979;DHT22;63430;53.186;6.598;2022-11-20T02:17:32;0.80;99.90
52979;DHT22;63430;53.186;6.598;2022-11-20T02:19:35;0.80;99.90
52979;DHT22;63430;53.186;6.598;2022-11-20T02:21:47;0.80;99.90
52979;DHT22;63430;53.186;6.598;2022-11-20T02:24:00;0.80;99.90
52979;DHT22;63430;53.186;6.598;2022-11-20T02:26:06;0.80;99.90
52979;DHT22;63430;53.186;6.598;2022-11-20T02:28:10;0.80;99.90
52979;DHT22;63430;53.186;6.598;2022-11-20T02:30:15;0.80;99.90
52979;DHT22;63430;53.186;6.598;2022-11-20T02:32:19;0.80;99.90
52979;DHT22;63430;53.186;6.598;2022-11-20T02:34:24;0.80;99.90
52979;DHT22;63430;53.186;6.598;2022-11-20T02:36:28;2.40;99.90
52979;DHT22;63430;53.186;6.598;2022-11-20T02:38:36;0.80;99.90
52979;DHT22;63430;53.186;6.598;2022-11-20T02:40:41;0.80;99.90
52979;DHT22;63430;53.186;6.598;2022-11-20T02:42:43;0.80;99.90
52979;DHT22;63430;53.186;6.598;2022-11-20T02:44:46;0.80;99.90
52979;DHT22;63430;53.186;6.598;2022-11-20T02:46:48;0.80;99.90
52979;DHT22;63430;53.186;6.598;2022-11-20T02:48:51;0.80;99.90
52979;DHT22;63430;53.186;6.598;2022-11-20T02:50:54;0.80;99.90
52979;DHT22;63430;53.186;6.598;2022-11-20T02:52:56;0.80;99.90
52979;DHT22;63430;53.186;6.598;2022-11-20T02:54:59;0.80;99.90
52979;DHT22;63430;53.186;6.598;2022-11-20T02:57:07;0.80;99.90
52979;DHT22;63430;53.186;6.598;2022-11-20T02:59:10;0.80;99.90
52979;DHT22;63430;53.186;6.598;2022-11-20T03:01:12;0.80;99.90
52979;DHT22;63430;53.186;6.598;2022-11-20T03:03:15;0.80;99.90
52979;DHT22;63430;53.186;6.598;2022-11-20T03:05:18;0.90;99.90
52979;DHT22;63430;53.186;6.598;2022-11-20T03:07:21;0.80;99.90
52979;DHT22;63430;53.186;6.598;2022-11-20T03:09:26;0.90;99.90
52979;DHT22;63430;53.186;6.598;2022-11-20T03:11:29;0.80;99.90
52979;DHT22;63430;53.186;6.598;2022-11-20T03:13:36;0.90;99.90
52979;DHT22;63430;53.186;6.598;2022-11-20T03:15:39;0.90;99.90
52979;DHT22;63430;53.186;6.598;2022-11-20T03:17:41;0.90;99.90
52979;DHT22;63430;53.186;6.598;2022-11-20T03:19:44;0.90;99.90
52979;DHT22;63430;53.186;6.598;2022-11-20T03:21:47;0.90;99.90
52979;DHT22;63430;53.186;6.598;2022-11-20T03:23:50;2.40;99.90
52979;DHT22;63430;53.186;6.598;2022-11-20T03:25:52;1.00;99.90
52979;DHT22;63430;53.186;6.598;2022-11-20T03:27:55;0.90;99.90
52979;DHT22;63430;53.186;6.598;2022-11-20T03:30:00;0.90;99.90
52979;DHT22;63430;53.186;6.598;2022-11-20T03:32:03;1.20;99.90
52979;DHT22;63430;53.186;6.598;2022-11-20T03:34:07;1.00;99.90
52979;DHT22;63430;53.186;6.598;2022-11-20T03:36:11;0.90;99.90
52979;DHT22;63430;53.186;6.598;2022-11-20T03:38:14;1.00;99.90
52979;DHT22;63430;53.186;6.598;2022-11-20T03:40:16;0.90;99.90
52979;DHT22;63430;53.186;6.598;2022-11-20T03:42:21;0.90;99.90
52979;DHT22;63430;53.186;6.598;2022-11-20T03:44:43;0.90;99.90
52979;DHT22;63430;53.186;6.598;2022-11-20T03:46:48;0.90;99.90
52979;DHT22;63430;53.186;6.598;2022-11-20T03:48:51;0.90;99.90
52979;DHT22;63430;53.186;6.598;2022-11-20T03:50:54;0.90;99.90
52979;DHT22;63430;53.186;6.598;2022-11-20T03:53:08;1.00;99.90
52979;DHT22;63430;53.186;6.598;2022-11-20T03:55:10;1.00;99.90
52979;DHT22;63430;53.186;6.598;2022-11-20T03:57:12;0.90;99.90
52979;DHT22;63430;53.186;6.598;2022-11-20T03:59:15;0.90;99.90
52979;DHT22;63430;53.186;6.598;2022-11-20T04:01:20;0.90;99.90
52979;DHT22;63430;53.186;6.598;2022-11-20T04:03:25;0.80;99.90
52979;DHT22;63430;53.186;6.598;2022-11-20T04:05:27;0.90;99.90
52979;DHT22;63430;53.186;6.598;2022-11-20T04:07:33;0.90;99.90
52979;DHT22;63430;53.186;6.598;2022-11-20T04:09:35;0.90;99.90
52979;DHT22;63430;53.186;6.598;2022-11-20T04:11:40;1.00;99.90
52979;DHT22;63430;53.186;6.598;2022-11-20T04:13:46;0.90;99.90
52979;DHT22;63430;53.186;6.598;2022-11-20T04:15:48;0.20;99.90
52979;DHT22;63430;53.186;6.598;2022-11-20T04:17:51;1.00;99.90
52979;DHT22;63430;53.186;6.598;2022-11-20T04:19:57;1.00;99.90
52979;DHT22;63430;53.186;6.598;2022-11-20T04:21:59;0.90;99.90
52979;DHT22;63430;53.186;6.598;2022-11-20T04:24:05;1.00;99.90
52979;DHT22;63430;53.186;6.598;2022-11-20T04:26:10;1.30;99.90
52979;DHT22;63430;53.186;6.598;2022-11-20T04:28:13;0.90;99.90
52979;DHT22;63430;53.186;6.598;2022-11-20T04:30:15;1.00;99.90
52979;DHT22;63430;53.186;6.598;2022-11-20T04:32:21;1.00;99.90
52979;DHT22;63430;53.186;6.598;2022-11-20T04:34:24;1.00;99.90
52979;DHT22;63430;53.186;6.598;2022-11-20T04:36:30;1.00;99.90
52979;DHT22;63430;53.186;6.598;2022-11-20T04:38:33;1.00;99.90
52979;DHT22;63430;53.186;6.598;2022-11-20T04:40:39;1.00;99.90
52979;DHT22;63430;53.186;6.598;2022-11-20T04:42:41;1.00;99.90
52979;DHT22;63430;53.186;6.598;2022-11-20T04:44:44;1.00;99.90
52979;DHT22;63430;53.186;6.598;2022-11-20T04:46:46;0.90;99.90
52979;DHT22;63430;53.186;6.598;2022-11-20T04:48:49;1.00;99.90
52979;DHT22;63430;53.186;6.598;2022-11-20T04:50:51;1.00;99.90
52979;DHT22;63430;53.186;6.598;2022-11-20T04:52:57;1.20;99.90
52979;DHT22;63430;53.186;6.598;2022-11-20T04:54:59;1.00;99.90
52979;DHT22;63430;53.186;6.598;2022-11-20T04:57:02;1.00;99.90
52979;DHT22;63430;53.186;6.598;2022-11-20T04:59:04;1.00;99.90
52979;DHT22;63430;53.186;6.598;2022-11-20T05:01:10;1.00;99.90
52979;DHT22;63430;53.186;6.598;2022-11-20T05:03:15;1.00;99.90
52979;DHT22;63430;53.186;6.598;2022-11-20T05:05:18;1.00;99.90
52979;DHT22;63430;53.186;6.598;2022-11-20T05:07:21;1.00;99.90
52979;DHT22;63430;53.186;6.598;2022-11-20T05:09:29;1.00;99.90
52979;DHT22;63430;53.186;6.598;2022-11-20T05:11:32;1.00;99.90
52979;DHT22;63430;53.186;6.598;2022-11-20T05:13:35;1.00;99.90
52979;DHT22;63430;53.186;6.598;2022-11-20T05:15:37;1.00;99.90
52979;DHT22;63430;53.186;6.598;2022-11-20T05:17:40;1.00;99.90
52979;DHT22;63430;53.186;6.598;2022-11-20T05:19:42;1.00;99.90
52979;DHT22;63430;53.186;6.598;2022-11-20T05:21:45;1.00;99.90
52979;DHT22;63430;53.186;6.598;2022-11-20T05:23:50;1.00;99.90
52979;DHT22;63430;53.186;6.598;2022-11-20T05:25:56;2.30;99.90
52979;DHT22;63430;53.186;6.598;2022-11-20T05:28:00;1.00;99.90
52979;DHT22;63430;53.186;6.598;2022-11-20T05:30:07;1.00;99.90
52979;DHT22;63430;53.186;6.598;2022-11-20T05:32:10;1.00;99.90
52979;DHT22;63430;53.186;6.598;2022-11-20T05:34:13;1.00;99.90
52979;DHT22;63430;53.186;6.598;2022-11-20T05:36:18;1.00;99.90
52979;DHT22;63430;53.186;6.598;2022-11-20T05:38:22;2.40;99.90
52979;DHT22;63430;53.186;6.598;2022-11-20T05:40:24;1.00;99.90
52979;DHT22;63430;53.186;6.598;2022-11-20T05:42:30;1.00;99.90
52979;DHT22;63430;53.186;6.598;2022-11-20T05:44:32;1.10;99.90
52979;DHT22;63430;53.186;6.598;2022-11-20T05:46:36;1.10;99.90
52979;DHT22;63430;53.186;6.598;2022-11-20T05:48:39;1.10;99.90
52979;DHT22;63430;53.186;6.598;2022-11-20T05:50:42;1.10;99.90
52979;DHT22;63430;53.186;6.598;2022-11-20T05:52:44;1.00;99.90
52979;DHT22;63430;53.186;6.598;2022-11-20T05:54:47;1.10;99.90
52979;DHT22;63430;53.186;6.598;2022-11-20T05:56:49;1.10;99.90
52979;DHT22;63430;53.186;6.598;2022-11-20T05:58:55;1.00;99.90
52979;DHT22;63430;53.186;6.598;2022-11-20T06:01:04;1.00;99.90
52979;DHT22;63430;53.186;6.598;2022-11-20T06:03:06;1.00;99.90
52979;DHT22;63430;53.186;6.598;2022-11-20T06:05:09;1.00;99.90
52979;DHT22;63430;53.186;6.598;2022-11-20T06:07:16;1.00;99.90
52979;DHT22;63430;53.186;6.598;2022-11-20T06:09:21;1.00;99.90
52979;DHT22;63430;53.186;6.598;2022-11-20T06:11:24;1.00;99.90
52979;DHT22;63430;53.186;6.598;2022-11-20T06:13:27;1.00;99.90
52979;DHT22;63430;53.186;6.598;2022-11-20T06:15:32;1.10;99.90
52979;DHT22;63430;53.186;6.598;2022-11-20T06:17:35;1.00;99.90
52979;DHT22;63430;53.186;6.598;2022-11-20T06:19:37;1.10;99.90
52979;DHT22;63430;53.186;6.598;2022-11-20T06:21:42;1.00;99.90
52979;DHT22;63430;53.186;6.598;2022-11-20T06:23:45;1.00;99.90
52979;DHT22;63430;53.186;6.598;2022-11-20T06:25:48;1.10;99.90
52979;DHT22;63430;53.186;6.598;2022-11-20T06:27:52;1.10;99.90
52979;DHT22;63430;53.186;6.598;2022-11-20T06:29:54;1.00;99.90
52979;DHT22;63430;53.186;6.598;2022-11-20T06:31:59;1.10;99.90
52979;DHT22;63430;53.186;6.598;2022-11-20T06:34:02;1.10;99.90
52979;DHT22;63430;53.186;6.598;2022-11-20T06:36:05;1.00;99.90
52979;DHT22;63430;53.186;6.598;2022-11-20T06:38:12;1.10;99.90
52979;DHT22;63430;53.186;6.598;2022-11-20T06:40:15;2.00;99.90
52979;DHT22;63430;53.186;6.598;2022-11-20T06:42:18;1.10;99.90
52979;DHT22;63430;53.186;6.598;2022-11-20T06:44:21;1.10;99.90
52979;DHT22;63430;53.186;6.598;2022-11-20T06:46:23;1.10;99.90
52979;DHT22;63430;53.186;6.598;2022-11-20T06:48:29;1.10;99.90
52979;DHT22;63430;53.186;6.598;2022-11-20T06:50:31;1.10;99.90
52979;DHT22;63430;53.186;6.598;2022-11-20T06:52:34;1.10;99.90
52979;DHT22;63430;53.186;6.598;2022-11-20T06:54:45;1.10;99.90
52979;DHT22;63430;53.186;6.598;2022-11-20T06:56:48;1.10;99.90
52979;DHT22;63430;53.186;6.598;2022-11-20T06:58:51;1.30;99.90
52979;DHT22;63430;53.186;6.598;2022-11-20T07:00:53;1.10;99.90
52979;DHT22;63430;53.186;6.598;2022-11-20T07:02:56;1.10;99.90
52979;DHT22;63430;53.186;6.598;2022-11-20T07:05:01;1.10;99.90
52979;DHT22;63430;53.186;6.598;2022-11-20T07:07:04;1.10;99.90
52979;DHT22;63430;53.186;6.598;2022-11-20T07:09:06;1.10;99.90
52979;DHT22;63430;53.186;6.598;2022-11-20T07:11:23;1.20;99.90
52979;DHT22;63430;53.186;6.598;2022-11-20T07:13:26;1.20;99.90
52979;DHT22;63430;53.186;6.598;2022-11-20T07:15:29;1.20;99.90
52979;DHT22;63430;53.186;6.598;2022-11-20T07:17:31;1.20;99.90
52979;DHT22;63430;53.186;6.598;2022-11-20T07:19:36;1.10;99.90
52979;DHT22;63430;53.186;6.598;2022-11-20T07:21:41;1.20;99.90
52979;DHT22;63430;53.186;6.598;2022-11-20T07:23:44;1.10;99.90
52979;DHT22;63430;53.186;6.598;2022-11-20T07:25:49;1.20;99.90
52979;DHT22;63430;53.186;6.598;2022-11-20T07:27:56;1.20;99.90
52979;DHT22;63430;53.186;6.598;2022-11-20T07:29:59;1.20;99.90
52979;DHT22;63430;53.186;6.598;2022-11-20T07:32:01;1.20;99.90
52979;DHT22;63430;53.186;6.598;2022-11-20T07:34:06;1.30;99.90
52979;DHT22;63430;53.186;6.598;2022-11-20T07:36:09;1.30;99.90
52979;DHT22;63430;53.186;6.598;2022-11-20T07:38:15;1.30;99.90
52979;DHT22;63430;53.186;6.598;2022-11-20T07:40:19;1.30;99.90
52979;DHT22;63430;53.186;6.598;2022-11-20T07:42:25;1.30;99.90
52979;DHT22;63430;53.186;6.598;2022-11-20T07:44:27;1.40;99.90
52979;DHT22;63430;53.186;6.598;2022-11-20T07:46:30;1.40;99.90
52979;DHT22;63430;53.186;6.598;2022-11-20T07:48:32;1.40;99.90
52979;DHT22;63430;53.186;6.598;2022-11-20T07:50:35;1.40;99.90
52979;DHT22;63430;53.186;6.598;2022-11-20T07:52:40;1.40;99.90
52979;DHT22;63430;53.186;6.598;2022-11-20T07:54:45;1.40;99.90
52979;DHT22;63430;53.186;6.598;2022-11-20T07:56:48;1.70;99.90
52979;DHT22;63430;53.186;6.598;2022-11-20T07:58:53;1.40;99.90
52979;DHT22;63430;53.186;6.598;2022-11-20T08:01:02;1.40;99.90
52979;DHT22;63430;53.186;6.598;2022-11-20T08:03:08;1.40;99.90
52979;DHT22;63430;53.186;6.598;2022-11-20T08:05:13;1.40;99.90
52979;DHT22;63430;53.186;6.598;2022-11-20T08:07:18;1.50;99.90
52979;DHT22;63430;53.186;6.598;2022-11-20T08:09:23;1.50;99.90
52979;DHT22;63430;53.186;6.598;2022-11-20T08:11:29;1.50;99.90
52979;DHT22;63430;53.186;6.598;2022-11-20T08:13:51;1.50;99.90
52979;DHT22;63430;53.186;6.598;2022-11-20T08:16:12;1.50;99.90
52979;DHT22;63430;53.186;6.598;2022-11-20T08:18:15;1.50;99.90
52979;DHT22;63430;53.186;6.598;2022-11-20T08:20:34;1.50;99.90
52979;DHT22;63430;53.186;6.598;2022-11-20T08:22:36;1.50;99.90
52979;DHT22;63430;53.186;6.598;2022-11-20T08:24:39;1.50;99.90
52979;DHT22;63430;53.186;6.598;2022-11-20T08:26:44;1.50;99.90
52979;DHT22;63430;53.186;6.598;2022-11-20T08:28:46;1.50;99.90
52979;DHT22;63430;53.186;6.598;2022-11-20T08:30:58;1.60;99.90
52979;DHT22;63430;53.186;6.598;2022-11-20T08:33:03;1.50;99.90
52979;DHT22;63430;53.186;6.598;2022-11-20T08:35:08;1.50;99.90
52979;DHT22;63430;53.186;6.598;2022-11-20T08:37:11;1.60;99.90
52979;DHT22;63430;53.186;6.598;2022-11-20T08:39:14;1.60;99.90
52979;DHT22;63430;53.186;6.598;2022-11-20T08:41:20;1.60;99.90
52979;DHT22;63430;53.186;6.598;2022-11-20T08:43:28;1.60;99.90
52979;DHT22;63430;53.186;6.598;2022-11-20T08:45:36;1.60;99.90
52979;DHT22;63430;53.186;6.598;2022-11-20T08:47:45;1.60;99.90
52979;DHT22;63430;53.186;6.598;2022-11-20T08:49:51;1.50;99.90
52979;DHT22;63430;53.186;6.598;2022-11-20T08:51:54;1.60;99.90
52979;DHT22;63430;53.186;6.598;2022-11-20T08:53:57;1.70;99.90
52979;DHT22;63430;53.186;6.598;2022-11-20T08:56:02;1.70;99.90
52979;DHT22;63430;53.186;6.598;2022-11-20T08:58:06;1.70;99.90
52979;DHT22;63430;53.186;6.598;2022-11-20T09:00:16;1.70;99.90
52979;DHT22;63430;53.186;6.598;2022-11-20T09:02:22;1.70;99.90
52979;DHT22;63430;53.186;6.598;2022-11-20T09:04:26;1.70;99.90
52979;DHT22;63430;53.186;6.598;2022-11-20T09:06:34;1.70;99.90
52979;DHT22;63430;53.186;6.598;2022-11-20T09:08:36;2.70;99.90
52979;DHT22;63430;53.186;6.598;2022-11-20T09:10:44;1.70;99.90
52979;DHT22;63430;53.186;6.598;2022-11-20T09:12:50;1.70;99.90
52979;DHT22;63430;53.186;6.598;2022-11-20T09:14:55;1.60;99.90
52979;DHT22;63430;53.186;6.598;2022-11-20T09:17:00;1.70;99.90
52979;DHT22;63430;53.186;6.598;2022-11-20T09:19:03;1.70;99.90
52979;DHT22;63430;53.186;6.598;2022-11-20T09:21:27;1.70;99.90
52979;DHT22;63430;53.186;6.598;2022-11-20T09:23:32;1.70;99.90
52979;DHT22;63430;53.186;6.598;2022-11-20T09:25:36;1.70;99.90
52979;DHT22;63430;53.186;6.598;2022-11-20T09:27:40;1.70;99.90
52979;DHT22;63430;53.186;6.598;2022-11-20T09:29:51;1.80;99.90
52979;DHT22;63430;53.186;6.598;2022-11-20T09:31:54;1.70;99.90
52979;DHT22;63430;53.186;6.598;2022-11-20T09:33:59;1.70;99.90
52979;DHT22;63430;53.186;6.598;2022-11-20T09:36:05;1.80;99.90
52979;DHT22;63430;53.186;6.598;2022-11-20T09:38:08;1.70;99.90
52979;DHT22;63430;53.186;6.598;2022-11-20T09:40:19;1.80;99.90
52979;DHT22;63430;53.186;6.598;2022-11-20T09:42:34;1.70;99.90
52979;DHT22;63430;53.186;6.598;2022-11-20T09:44:55;1.70;99.90
52979;DHT22;63430;53.186;6.598;2022-11-20T09:47:02;1.80;99.90
52979;DHT22;63430;53.186;6.598;2022-11-20T09:49:26;1.80;99.90
52979;DHT22;63430;53.186;6.598;2022-11-20T09:51:41;1.80;99.90
52979;DHT22;63430;53.186;6.598;2022-11-20T09:53:56;1.80;99.90
52979;DHT22;63430;53.186;6.598;2022-11-20T09:56:03;0.90;99.90
52979;DHT22;63430;53.186;6.598;2022-11-20T09:58:07;1.80;99.90
52979;DHT22;63430;53.186;6.598;2022-11-20T10:00:12;1.30;99.90
52979;DHT22;63430;53.186;6.598;2022-11-20T10:02:19;1.90;99.90
52979;DHT22;63430;53.186;6.598;2022-11-20T10:04:32;1.90;99.90
52979;DHT22;63430;53.186;6.598;2022-11-20T10:06:44;2.30;99.90
52979;DHT22;63430;53.186;6.598;2022-11-20T10:09:18;2.00;99.90
52979;DHT22;63430;53.186;6.598;2022-11-20T10:11:38;2.00;99.90
52979;DHT22;63430;53.186;6.598;2022-11-20T10:13:51;1.90;99.90
52979;DHT22;63430;53.186;6.598;2022-11-20T10:16:12;2.00;99.90
52979;DHT22;63430;53.186;6.598;2022-11-20T10:18:27;2.00;99.90
52979;DHT22;63430;53.186;6.598;2022-11-20T10:20:45;2.00;99.90
52979;DHT22;63430;53.186;6.598;2022-11-20T10:22:56;2.00;99.90
52979;DHT22;63430;53.186;6.598;2022-11-20T10:25:06;2.10;99.90
52979;DHT22;63430;53.186;6.598;2022-11-20T10:27:29;2.10;99.90
52979;DHT22;63430;53.186;6.598;2022-11-20T10:29:38;2.10;99.90
52979;DHT22;63430;53.186;6.598;2022-11-20T10:31:43;2.20;99.90
52979;DHT22;63430;53.186;6.598;2022-11-20T10:33:47;2.20;99.90
52979;DHT22;63430;53.186;6.598;2022-11-20T10:36:19;2.20;99.90
52979;DHT22;63430;53.186;6.598;2022-11-20T10:38:26;2.30;99.90
52979;DHT22;63430;53.186;6.598;2022-11-20T10:40:37;2.30;99.90
52979;DHT22;63430;53.186;6.598;2022-11-20T10:42:43;2.40;99.90
52979;DHT22;63430;53.186;6.598;2022-11-20T10:44:51;2.40;99.90
52979;DHT22;63430;53.186;6.598;2022-11-20T10:47:13;2.50;99.90
52979;DHT22;63430;53.186;6.598;2022-11-20T10:49:18;2.50;99.90
52979;DHT22;63430;53.186;6.598;2022-11-20T10:51:33;2.50;99.90
52979;DHT22;63430;53.186;6.598;2022-11-20T10:53:51;2.50;99.90
52979;DHT22;63430;53.186;6.598;2022-11-20T10:56:03;2.50;99.90
52979;DHT22;63430;53.186;6.598;2022-11-20T10:58:19;2.50;99.90
52979;DHT22;63430;53.186;6.598;2022-11-20T11:00:24;1.80;99.90
52979;DHT22;63430;53.186;6.598;2022-11-20T11:02:34;2.50;99.90
52979;DHT22;63430;53.186;6.598;2022-11-20T11:04:42;2.50;99.90
52979;DHT22;63430;53.186;6.598;2022-11-20T11:06:48;2.50;99.90
52979;DHT22;63430;53.186;6.598;2022-11-20T11:08:53;2.50;99.90
52979;DHT22;63430;53.186;6.598;2022-11-20T11:11:00;2.60;99.90
52979;DHT22;63430;53.186;6.598;2022-11-20T11:13:04;2.60;99.90
52979;DHT22;63430;53.186;6.598;2022-11-20T11:15:13;2.70;99.90
52979;DHT22;63430;53.186;6.598;2022-11-20T11:17:29;2.70;99.90
52979;DHT22;63430;53.186;6.598;2022-11-20T11:19:34;2.70;99.90
52979;DHT22;63430;53.186;6.598;2022-11-20T11:21:36;2.70;99.90
52979;DHT22;63430;53.186;6.598;2022-11-20T11:23:46;2.70;99.90
52979;DHT22;63430;53.186;6.598;2022-11-20T11:25:57;2.70;99.90
52979;DHT22;63430;53.186;6.598;2022-11-20T11:28:03;2.70;99.90
52979;DHT22;63430;53.186;6.598;2022-11-20T11:30:14;2.70;99.90
52979;DHT22;63430;53.186;6.598;2022-11-20T11:32:19;2.70;99.90
52979;DHT22;63430;53.186;6.598;2022-11-20T11:34:23;2.70;99.90
52979;DHT22;63430;53.186;6.598;2022-11-20T11:36:26;2.70;99.90
52979;DHT22;63430;53.186;6.598;2022-11-20T11:38:34;2.60;99.90
52979;DHT22;63430;53.186;6.598;2022-11-20T11:40:40;2.70;99.90
52979;DHT22;63430;53.186;6.598;2022-11-20T11:42:48;2.70;99.90
52979;DHT22;63430;53.186;6.598;2022-11-20T11:44:52;2.70;99.90
52979;DHT22;63430;53.186;6.598;2022-11-20T11:47:17;2.70;99.90
52979;DHT22;63430;53.186;6.598;2022-11-20T11:49:22;2.80;99.90
52979;DHT22;63430;53.186;6.598;2022-11-20T11:51:28;2.80;99.90
52979;DHT22;63430;53.186;6.598;2022-11-20T11:53:33;3.60;99.90
52979;DHT22;63430;53.186;6.598;2022-11-20T11:55:44;2.80;99.90
52979;DHT22;63430;53.186;6.598;2022-11-20T11:57:51;2.80;99.90
52979;DHT22;63430;53.186;6.598;2022-11-20T12:00:02;2.70;99.90
52979;DHT22;63430;53.186;6.598;2022-11-20T12:02:15;2.70;99.90
52979;DHT22;63430;53.186;6.598;2022-11-20T12:04:37;3.20;99.90
52979;DHT22;63430;53.186;6.598;2022-11-20T12:06:44;2.70;99.90
52979;DHT22;63430;53.186;6.598;2022-11-20T12:08:50;2.80;99.90
52979;DHT22;63430;53.186;6.598;2022-11-20T12:11:03;2.20;99.90
52979;DHT22;63430;53.186;6.598;2022-11-20T12:13:15;2.90;99.90
52979;DHT22;63430;53.186;6.598;2022-11-20T12:15:28;2.90;99.90
52979;DHT22;63430;53.186;6.598;2022-11-20T12:17:31;3.00;99.90
52979;DHT22;63430;53.186;6.598;2022-11-20T12:19:34;3.10;99.90
52979;DHT22;63430;53.186;6.598;2022-11-20T12:21:44;3.10;99.90
52979;DHT22;63430;53.186;6.598;2022-11-20T12:24:11;3.20;99.90
52979;DHT22;63430;53.186;6.598;2022-11-20T12:26:32;3.30;99.90
52979;DHT22;63430;53.186;6.598;2022-11-20T12:28:48;3.40;99.90
52979;DHT22;63430;53.186;6.598;2022-11-20T12:31:04;3.50;99.90
52979;DHT22;63430;53.186;6.598;2022-11-20T12:33:24;3.50;99.90
52979;DHT22;63430;53.186;6.598;2022-11-20T12:35:41;3.60;99.90
52979;DHT22;63430;53.186;6.598;2022-11-20T12:37:52;3.70;99.90
52979;DHT22;63430;53.186;6.598;2022-11-20T12:40:05;3.70;99.90
52979;DHT22;63430;53.186;6.598;2022-11-20T12:42:23;3.80;99.90
52979;DHT22;63430;53.186;6.598;2022-11-20T12:47:59;3.80;99.90
52979;DHT22;63430;53.186;6.598;2022-11-20T12:50:14;3.80;99.90
52979;DHT22;63430;53.186;6.598;2022-11-20T12:52:35;3.80;99.90
52979;DHT22;63430;53.186;6.598;2022-11-20T12:55:07;3.80;99.90
52979;DHT22;63430;53.186;6.598;2022-11-20T12:57:18;3.70;99.90
52979;DHT22;63430;53.186;6.598;2022-11-20T12:59:38;3.70;99.90
52979;DHT22;63430;53.186;6.598;2022-11-20T13:01:49;3.60;99.90
52979;DHT22;63430;53.186;6.598;2022-11-20T13:03:57;3.70;99.90
52979;DHT22;63430;53.186;6.598;2022-11-20T13:06:14;3.70;99.90
52979;DHT22;63430;53.186;6.598;2022-11-20T13:08:21;4.50;99.90
52979;DHT22;63430;53.186;6.598;2022-11-20T13:10:32;3.70;99.90
52979;DHT22;63430;53.186;6.598;2022-11-20T13:12:40;3.70;99.90
52979;DHT22;63430;53.186;6.598;2022-11-20T13:14:52;3.80;99.90
52979;DHT22;63430;53.186;6.598;2022-11-20T13:17:00;3.80;99.90
52979;DHT22;63430;53.186;6.598;2022-11-20T13:19:11;3.80;99.90
52979;DHT22;63430;53.186;6.598;2022-11-20T13:21:18;3.80;99.90
52979;DHT22;63430;53.186;6.598;2022-11-20T13:23:26;3.80;99.90
52979;DHT22;63430;53.186;6.598;2022-11-20T13:25:31;3.80;99.90
52979;DHT22;63430;53.186;6.598;2022-11-20T13:27:34;3.80;99.90
52979;DHT22;63430;53.186;6.598;2022-11-20T13:29:39;3.80;99.90
52979;DHT22;63430;53.186;6.598;2022-11-20T13:31:47;3.80;99.90
52979;DHT22;63430;53.186;6.598;2022-11-20T13:33:53;3.80;99.90
52979;DHT22;63430;53.186;6.598;2022-11-20T13:36:00;3.80;99.90